createdAt,value
2022-11-22T00:00:46.605Z,112.85
2022-11-22T00:03:13.612Z,106.93
2022-11-22T00:05:40.618Z,114.43
2022-11-22T00:08:07.780Z,109.88
2022-11-22T00:10:35.256Z,108.70
2022-11-22T00:13:03.026Z,109.55
2022-11-22T00:15:30.681Z,110.20
2022-11-22T00:17:58.038Z,117.72
2022-11-22T00:20:27.588Z,107.78
2022-11-22T00:22:58.384Z,106.72
2022-11-22T00:25:26.321Z,101.65
2022-11-22T00:27:53.802Z,107.65
2022-11-22T00:30:21.124Z,112.15
2022-11-22T00:32:50.847Z,118.65
2022-11-22T00:35:18.143Z,110.88
2022-11-22T00:38:06.382Z,105.38
2022-11-22T00:40:45.260Z,103.63
2022-11-22T00:43:12.259Z,106.30
2022-11-22T00:45:44.558Z,107.50
2022-11-22T00:48:11.598Z,103.13
2022-11-22T00:50:39.366Z,106.47
2022-11-22T00:53:06.460Z,104.53
2022-11-22T00:55:33.459Z,99.57
2022-11-22T00:58:03.319Z,109.20
2022-11-22T01:00:30.884Z,117.20
2022-11-22T01:02:58.013Z,111.85
2022-11-22T01:05:27.268Z,121.05
2022-11-22T01:07:56.779Z,120.22
2022-11-22T01:10:26.180Z,127.63
2022-11-22T01:12:53.267Z,118.63
2022-11-22T01:15:20.330Z,127.28
2022-11-22T01:17:47.320Z,117.45
2022-11-22T01:20:14.394Z,127.28
2022-11-22T01:22:41.373Z,129.52
2022-11-22T01:25:09.261Z,124.20
2022-11-22T01:27:36.508Z,127.38
2022-11-22T01:30:07.620Z,120.22
2022-11-22T01:32:34.634Z,121.32
2022-11-22T01:35:01.624Z,114.75
2022-11-22T01:37:28.673Z,122.05
2022-11-22T01:39:55.662Z,120.55
2022-11-22T01:42:22.696Z,121.20
2022-11-22T01:44:51.123Z,123.10
2022-11-22T01:47:23.929Z,121.65
2022-11-22T01:50:00.575Z,123.68
2022-11-22T01:52:34.666Z,119.65
2022-11-22T01:55:09.149Z,129.18
2022-11-22T01:57:39.254Z,106.63
2022-11-22T02:00:16.861Z,98.53
2022-11-22T02:02:51.443Z,94.25
2022-11-22T02:05:21.461Z,82.72
2022-11-22T02:07:55.788Z,77.10
2022-11-22T02:10:27.821Z,89.03
2022-11-22T02:12:59.629Z,100.20
2022-11-22T02:15:29.497Z,79.50
2022-11-22T02:17:59.832Z,79.68
2022-11-22T02:20:26.879Z,71.95
2022-11-22T02:23:16.995Z,74.00
2022-11-22T02:25:59.674Z,76.32
2022-11-22T02:28:31.053Z,81.28
2022-11-22T02:31:00.818Z,81.82
2022-11-22T02:33:27.894Z,77.10
2022-11-22T02:35:55.319Z,81.15
2022-11-22T02:38:26.879Z,82.43
2022-11-22T02:41:14.317Z,75.88
2022-11-22T02:43:47.674Z,73.78
2022-11-22T02:46:20.736Z,74.72
2022-11-22T02:48:50.592Z,77.63
2022-11-22T02:51:20.101Z,84.35
2022-11-22T02:53:57.781Z,81.57
2022-11-22T02:56:24.829Z,82.63
2022-11-22T02:58:51.921Z,80.88
2022-11-22T03:01:19.028Z,80.63
2022-11-22T03:03:46.025Z,84.35
2022-11-22T03:06:13.175Z,79.93
2022-11-22T03:08:40.179Z,84.70
2022-11-22T03:11:07.253Z,94.70
2022-11-22T03:13:34.277Z,93.72
2022-11-22T03:16:01.615Z,90.22
2022-11-22T03:18:33.065Z,86.40
2022-11-22T03:21:09.393Z,82.97
2022-11-22T03:23:37.189Z,87.00
2022-11-22T03:26:14.523Z,87.40
2022-11-22T03:28:41.512Z,92.55
2022-11-22T03:31:08.919Z,90.80
2022-11-22T03:33:36.461Z,86.65
2022-11-22T03:36:04.189Z,81.30
2022-11-22T03:38:31.973Z,88.35
2022-11-22T03:40:59.060Z,93.93
2022-11-22T03:43:28.544Z,89.05
2022-11-22T03:45:55.605Z,80.20
2022-11-22T03:48:25.049Z,79.18
2022-11-22T03:50:52.076Z,86.85
2022-11-22T03:53:19.045Z,82.90
2022-11-22T03:55:46.148Z,80.85
2022-11-22T03:58:13.174Z,75.47
2022-11-22T04:00:40.214Z,76.90
2022-11-22T04:03:07.312Z,76.80
2022-11-22T04:05:34.305Z,83.07
2022-11-22T04:08:01.281Z,69.43
2022-11-22T04:10:28.282Z,73.57
2022-11-22T04:12:59.547Z,74.45
2022-11-22T04:15:30.284Z,84.17
2022-11-22T04:17:57.258Z,78.10
2022-11-22T04:20:49.157Z,77.43
2022-11-22T04:23:19.231Z,82.45
2022-11-22T04:25:49.756Z,86.07
2022-11-22T04:28:20.063Z,77.55
2022-11-22T04:31:07.000Z,75.90
2022-11-22T04:33:34.605Z,72.15
2022-11-22T04:36:02.122Z,76.55
2022-11-22T04:38:29.307Z,82.35
2022-11-22T04:40:56.318Z,83.20
2022-11-22T04:43:48.828Z,86.95
2022-11-22T04:48:43.454Z,96.20
2022-11-22T04:51:33.501Z,107.05
2022-11-22T04:54:00.517Z,102.45
2022-11-22T04:56:27.539Z,108.00
2022-11-22T04:58:54.993Z,109.00
2022-11-22T05:01:22.132Z,92.07
2022-11-22T05:03:49.224Z,117.07
2022-11-22T05:06:16.454Z,107.28
2022-11-22T05:08:43.479Z,93.28
2022-11-22T05:11:12.667Z,103.55
2022-11-22T05:13:42.227Z,101.88
2022-11-22T05:16:13.067Z,95.10
2022-11-22T05:18:40.339Z,95.47
2022-11-22T05:21:15.797Z,103.95
2022-11-22T05:23:54.482Z,97.53
2022-11-22T05:26:34.204Z,84.43
2022-11-22T05:29:08.725Z,96.40
2022-11-22T05:31:38.744Z,107.13
2022-11-22T05:34:08.352Z,98.78
2022-11-22T05:36:35.828Z,97.65
2022-11-22T05:39:03.705Z,96.93
2022-11-22T05:41:33.123Z,106.05
2022-11-22T05:44:01.674Z,90.45
2022-11-22T05:46:30.331Z,95.90
2022-11-22T05:48:58.672Z,100.63
2022-11-22T05:51:34.526Z,88.93
2022-11-22T05:54:03.072Z,105.85
2022-11-22T05:56:30.176Z,155.18
2022-11-22T05:58:57.186Z,95.10
2022-11-22T06:01:25.650Z,95.65
2022-11-22T06:03:53.097Z,99.55
2022-11-22T06:06:20.666Z,93.70
2022-11-22T06:08:48.760Z,94.82
2022-11-22T06:11:20.614Z,102.25
2022-11-22T06:13:51.215Z,93.40
2022-11-22T06:16:18.685Z,98.53
2022-11-22T06:18:45.857Z,96.65
2022-11-22T06:21:19.602Z,96.60
2022-11-22T06:23:46.964Z,95.57
2022-11-22T06:26:19.921Z,103.90
2022-11-22T06:28:49.414Z,128.73
2022-11-22T06:31:19.823Z,139.75
2022-11-22T06:33:47.223Z,99.47
2022-11-22T06:36:20.598Z,93.05
2022-11-22T06:38:47.974Z,106.03
2022-11-22T06:41:24.476Z,85.03
2022-11-22T06:43:53.544Z,86.95
2022-11-22T06:46:23.349Z,86.72
2022-11-22T06:48:51.065Z,84.00
2022-11-22T06:51:27.391Z,83.53
2022-11-22T06:53:58.074Z,85.47
2022-11-22T06:56:36.927Z,84.65
2022-11-22T06:59:05.980Z,90.82
2022-11-22T07:01:34.784Z,97.45
2022-11-22T07:04:04.365Z,82.63
2022-11-22T07:06:36.093Z,80.60
2022-11-22T07:09:10.093Z,83.22
2022-11-22T07:11:40.675Z,79.13
2022-11-22T07:14:09.322Z,79.68
2022-11-22T07:16:39.398Z,83.97
2022-11-22T07:19:07.322Z,88.25
2022-11-22T07:21:37.357Z,68.32
2022-11-22T07:24:06.119Z,74.72
2022-11-22T07:26:33.158Z,71.05
2022-11-22T07:29:02.707Z,70.85
2022-11-22T07:31:29.756Z,70.57
2022-11-22T07:34:00.113Z,69.18
2022-11-22T07:36:29.605Z,69.45
2022-11-22T07:38:56.886Z,81.40
2022-11-22T07:41:24.298Z,78.85
2022-11-22T07:43:53.388Z,72.70
2022-11-22T07:46:33.391Z,78.20
2022-11-22T07:49:02.032Z,76.95
2022-11-22T07:51:29.689Z,81.82
2022-11-22T07:53:59.676Z,89.78
2022-11-22T07:56:27.728Z,79.63
2022-11-22T07:58:55.470Z,79.32
2022-11-22T08:01:23.722Z,75.03
2022-11-22T08:03:50.902Z,89.93
2022-11-22T08:06:17.878Z,87.43
2022-11-22T08:08:45.178Z,81.97
2022-11-22T08:11:15.089Z,84.97
2022-11-22T08:13:44.784Z,82.65
2022-11-22T08:16:17.671Z,102.30
2022-11-22T08:18:49.714Z,138.43
2022-11-22T08:21:18.527Z,112.65
2022-11-22T08:23:52.062Z,93.00
2022-11-22T08:26:21.379Z,101.03
2022-11-22T08:28:48.366Z,100.82
2022-11-22T08:31:21.104Z,127.30
2022-11-22T08:33:48.911Z,100.20
2022-11-22T08:36:15.975Z,97.05
2022-11-22T08:38:43.056Z,106.63
2022-11-22T08:41:11.120Z,100.63
2022-11-22T08:43:38.170Z,98.47
2022-11-22T08:46:06.414Z,103.38
2022-11-22T08:48:37.733Z,90.80
2022-11-22T08:51:08.235Z,93.37
2022-11-22T08:53:38.729Z,96.88
2022-11-22T08:56:09.742Z,94.65
2022-11-22T08:58:37.645Z,111.70
2022-11-22T09:01:23.635Z,97.97
2022-11-22T09:03:50.768Z,107.70
2022-11-22T09:09:35.767Z,96.13
2022-11-22T09:11:56.158Z,96.45
2022-11-22T09:14:23.240Z,95.95
2022-11-22T09:16:50.260Z,94.43
2022-11-22T09:19:19.860Z,100.72
2022-11-22T09:21:46.835Z,92.93
2022-11-22T09:24:13.852Z,98.65
2022-11-22T09:26:50.224Z,96.22
2022-11-22T09:29:17.215Z,93.10
2022-11-22T09:31:46.574Z,97.18
2022-11-22T09:34:13.749Z,92.20
2022-11-22T09:36:43.698Z,101.70
2022-11-22T09:39:10.755Z,97.13
2022-11-22T09:42:01.224Z,91.28
2022-11-22T09:45:10.561Z,92.15
2022-11-22T09:47:59.562Z,84.78
2022-11-22T09:51:02.912Z,98.20
2022-11-22T09:53:39.437Z,99.47
2022-11-22T09:56:13.309Z,99.07
2022-11-22T09:58:51.657Z,103.72
2022-11-22T10:01:23.359Z,100.70
2022-11-22T10:04:23.059Z,101.90
2022-11-22T10:07:04.656Z,92.40
2022-11-22T10:09:51.848Z,88.60
2022-11-22T10:12:49.221Z,95.75
2022-11-22T10:15:57.524Z,103.32
2022-11-22T10:18:54.223Z,89.22
2022-11-22T10:21:21.485Z,93.05
2022-11-22T10:23:48.667Z,87.90
2022-11-22T10:26:32.687Z,99.40
2022-11-22T10:29:37.297Z,87.10
2022-11-22T10:32:30.062Z,90.25
2022-11-22T10:35:09.132Z,91.28
2022-11-22T10:37:58.776Z,85.47
2022-11-22T10:40:28.415Z,92.65
2022-11-22T10:43:20.629Z,90.22
2022-11-22T10:46:07.688Z,87.13
2022-11-22T10:48:58.554Z,75.25
2022-11-22T10:51:39.244Z,73.35
2022-11-22T10:54:32.203Z,73.28
2022-11-22T10:57:35.198Z,72.60
2022-11-22T11:00:22.774Z,70.32
2022-11-22T11:03:13.871Z,66.80
2022-11-22T11:06:21.086Z,75.55
2022-11-22T11:09:36.312Z,71.30
2022-11-22T11:11:39.162Z,77.68
2022-11-22T11:14:26.329Z,74.75
2022-11-22T11:16:56.897Z,71.97
2022-11-22T11:19:27.221Z,71.38
2022-11-22T11:22:09.639Z,72.53
2022-11-22T11:27:09.923Z,78.90
2022-11-22T11:30:03.708Z,66.57
2022-11-22T11:32:53.093Z,73.40
2022-11-22T11:35:26.655Z,77.75
2022-11-22T11:37:55.028Z,81.53
2022-11-22T11:40:33.784Z,92.72
2022-11-22T11:43:21.076Z,87.80
2022-11-22T11:45:48.498Z,88.00
2022-11-22T11:48:41.236Z,76.40
2022-11-22T11:51:14.362Z,75.63
2022-11-22T11:54:04.200Z,83.00
2022-11-22T11:56:51.857Z,73.55
2022-11-22T11:59:44.329Z,81.05
2022-11-22T12:05:01.692Z,98.10
2022-11-22T12:07:44.672Z,107.93
2022-11-22T12:10:58.845Z,107.65
2022-11-22T12:14:12.827Z,121.50
2022-11-22T12:16:50.564Z,90.70
2022-11-22T12:19:55.738Z,80.38
2022-11-22T12:22:50.517Z,83.93
2022-11-22T12:25:41.273Z,91.85
2022-11-22T12:28:22.683Z,90.53
2022-11-22T12:31:18.071Z,89.80
2022-11-22T12:33:53.092Z,86.85
2022-11-22T12:36:47.638Z,83.88
2022-11-22T12:39:27.039Z,93.22
2022-11-22T12:42:20.059Z,80.97
2022-11-22T12:44:59.865Z,82.75
2022-11-22T12:47:41.650Z,78.10
2022-11-22T12:50:32.612Z,85.57
2022-11-22T12:53:34.907Z,88.50
2022-11-22T12:56:33.376Z,81.32
2022-11-22T12:59:41.939Z,85.60
2022-11-22T13:02:59.228Z,78.95
2022-11-22T13:05:31.759Z,90.97
2022-11-22T13:08:21.505Z,74.80
2022-11-22T13:11:37.735Z,86.07
2022-11-22T13:14:40.431Z,88.63
2022-11-22T13:19:49.373Z,87.45
2022-11-22T13:22:47.073Z,81.03
2022-11-22T13:25:40.679Z,85.43
2022-11-22T13:28:16.866Z,84.68
2022-11-22T13:31:12.168Z,90.43
2022-11-22T13:34:21.621Z,97.53
2022-11-22T13:36:49.868Z,78.78
2022-11-22T13:39:23.023Z,86.05
2022-11-22T13:41:58.844Z,93.18
2022-11-22T13:44:33.455Z,84.60
2022-11-22T13:47:06.291Z,80.80
2022-11-22T13:49:46.572Z,68.55
2022-11-22T13:52:15.004Z,78.45
2022-11-22T13:54:47.806Z,78.05
2022-11-22T13:57:37.505Z,78.57
2022-11-22T14:00:15.908Z,75.15
2022-11-22T14:03:11.520Z,66.63
2022-11-22T14:05:42.072Z,64.25
2022-11-22T14:08:37.822Z,78.15
2022-11-22T14:11:13.782Z,78.95
2022-11-22T14:14:12.718Z,74.25
2022-11-22T14:17:02.652Z,72.93
2022-11-22T14:20:26.973Z,68.85
2022-11-22T14:23:10.071Z,68.15
2022-11-22T14:25:55.679Z,70.65
2022-11-22T14:29:09.063Z,71.75
2022-11-22T14:31:37.131Z,78.32
2022-11-22T14:34:19.151Z,85.38
2022-11-22T14:37:12.439Z,74.85
2022-11-22T14:39:45.568Z,76.25
2022-11-22T14:42:43.018Z,73.95
2022-11-22T14:45:10.217Z,84.80
2022-11-22T14:47:52.606Z,79.15
2022-11-22T14:52:49.684Z,78.75
2022-11-22T14:55:26.390Z,84.15
2022-11-22T14:58:08.149Z,90.03
2022-11-22T15:01:12.067Z,86.57
2022-11-22T15:03:41.902Z,88.25
2022-11-22T15:09:14.562Z,87.65
2022-11-22T15:09:53.868Z,73.80
2022-11-22T15:13:24.695Z,81.30
2022-11-22T15:57:38.445Z,83.43
2022-11-22T16:00:29.563Z,85.53
2022-11-22T16:03:01.621Z,81.05
2022-11-22T16:06:07.808Z,78.88
2022-11-22T16:08:32.385Z,81.68
2022-11-22T16:11:00.465Z,87.93
2022-11-22T16:13:33.670Z,91.80
2022-11-22T16:16:15.598Z,90.47
2022-11-22T16:18:46.023Z,88.28
2022-11-22T16:21:15.701Z,82.65
2022-11-22T16:23:46.463Z,96.22
2022-11-22T16:26:22.182Z,88.18
2022-11-22T16:28:52.638Z,86.30
2022-11-22T16:31:31.885Z,82.82
2022-11-22T16:34:00.646Z,98.05
2022-11-22T16:36:36.802Z,79.32
2022-11-22T16:39:04.089Z,87.05
2022-11-22T16:41:35.022Z,100.25
2022-11-22T16:44:13.669Z,90.35
2022-11-22T16:46:41.904Z,92.78
2022-11-22T16:49:23.002Z,102.18
2022-11-22T16:51:52.954Z,85.13
2022-11-22T16:54:24.014Z,86.65
2022-11-22T16:56:51.014Z,87.28
2022-11-22T16:59:18.107Z,91.75
2022-11-22T17:01:45.269Z,81.70
2022-11-22T17:04:22.348Z,84.28
2022-11-22T17:06:50.244Z,88.63
2022-11-22T17:09:17.724Z,90.53
2022-11-22T17:11:45.540Z,93.47
2022-11-22T17:14:17.851Z,92.32
2022-11-22T17:16:46.076Z,96.55
2022-11-22T17:19:37.496Z,111.60
2022-11-22T17:22:06.955Z,98.53
2022-11-22T17:24:34.986Z,104.00
2022-11-22T17:27:02.200Z,101.05
2022-11-22T17:29:49.471Z,87.22
2022-11-22T17:32:16.248Z,102.85
2022-11-22T17:34:43.463Z,88.55
2022-11-22T17:37:12.982Z,81.25
2022-11-22T17:39:41.151Z,82.20
2022-11-22T17:42:13.252Z,83.78
2022-11-22T17:44:40.381Z,82.80
2022-11-22T17:47:09.625Z,83.93
2022-11-22T17:49:36.940Z,91.00
2022-11-22T17:52:06.414Z,79.93
2022-11-22T17:54:33.614Z,88.18
2022-11-22T17:57:00.743Z,80.20
2022-11-22T17:59:27.956Z,84.35
2022-11-22T18:01:56.016Z,73.72
2022-11-22T18:04:25.548Z,78.32
2022-11-22T18:06:54.725Z,78.93
2022-11-22T18:09:22.089Z,75.20
2022-11-22T18:11:49.280Z,69.70
2022-11-22T18:14:16.695Z,81.78
2022-11-22T18:16:43.840Z,69.53
2022-11-22T18:19:10.915Z,80.70
2022-11-22T18:21:39.151Z,63.13
2022-11-22T18:24:11.169Z,63.63
2022-11-22T18:26:41.978Z,60.67
2022-11-22T18:29:41.149Z,52.65
2022-11-22T18:31:58.664Z,75.68
2022-11-22T18:34:26.370Z,74.75
2022-11-22T18:37:03.058Z,80.68
2022-11-22T18:39:38.540Z,77.95
2022-11-22T18:42:11.548Z,86.15
2022-11-22T18:44:38.537Z,72.63
2022-11-22T18:47:08.091Z,83.00
2022-11-22T18:49:36.046Z,85.38
2022-11-22T18:52:03.444Z,76.80
2022-11-22T18:54:30.921Z,73.18
2022-11-22T18:56:58.502Z,69.32
2022-11-22T18:59:25.725Z,78.93
2022-11-22T19:01:52.794Z,73.88
2022-11-22T19:04:24.458Z,72.20
2022-11-22T19:06:51.839Z,74.05
2022-11-22T19:09:18.916Z,145.90
2022-11-22T19:11:45.943Z,97.22
2022-11-22T19:14:13.018Z,90.78
2022-11-22T19:16:40.145Z,87.00
2022-11-22T19:19:08.867Z,81.10
2022-11-22T19:21:35.901Z,83.00
2022-11-22T19:24:03.031Z,85.13
2022-11-22T19:26:30.087Z,83.75
2022-11-22T19:28:59.843Z,85.28
2022-11-22T19:31:29.546Z,77.05
2022-11-22T19:34:00.109Z,88.47
2022-11-22T19:36:33.168Z,72.30
2022-11-22T19:39:03.954Z,85.43
2022-11-22T19:41:31.646Z,82.82
2022-11-22T19:44:02.071Z,95.38
2022-11-22T19:46:30.269Z,83.18
2022-11-22T19:48:59.513Z,87.93
2022-11-22T19:51:30.087Z,78.57
2022-11-22T19:54:04.158Z,76.65
2022-11-22T19:56:35.365Z,82.40
2022-11-22T19:59:09.847Z,79.75
2022-11-22T20:01:37.246Z,77.45
2022-11-22T20:04:06.246Z,83.95
2022-11-22T20:06:44.846Z,82.95
2022-11-22T20:09:14.394Z,78.50
2022-11-22T20:11:42.341Z,81.55
2022-11-22T20:14:10.298Z,79.32
2022-11-22T20:16:41.355Z,85.70
2022-11-22T20:19:10.645Z,73.93
2022-11-22T20:21:38.648Z,76.70
2022-11-22T20:24:06.422Z,84.85
2022-11-22T20:26:34.536Z,85.75
2022-11-22T20:29:08.094Z,74.20
2022-11-22T20:31:37.212Z,80.05
2022-11-22T20:34:04.686Z,85.43
2022-11-22T20:36:34.555Z,87.15
2022-11-22T20:39:06.969Z,83.55
2022-11-22T20:41:37.637Z,81.53
2022-11-22T20:44:05.599Z,78.60
2022-11-22T20:46:40.407Z,86.60
2022-11-22T20:49:10.066Z,81.40
2022-11-22T20:51:39.871Z,84.45
2022-11-22T20:54:08.364Z,96.47
2022-11-22T20:56:36.777Z,85.18
2022-11-22T20:59:06.992Z,81.60
2022-11-22T21:01:36.648Z,78.60
2022-11-22T21:04:03.773Z,76.22
2022-11-22T21:06:34.598Z,88.95
2022-11-22T21:09:01.973Z,80.07
2022-11-22T21:11:31.131Z,84.60
2022-11-22T21:14:01.371Z,79.30
2022-11-22T21:16:29.810Z,76.10
2022-11-22T21:19:05.116Z,82.10
2022-11-22T21:21:36.109Z,85.78
2022-11-22T21:24:06.240Z,92.32
2022-11-22T21:26:34.563Z,91.25
2022-11-22T21:29:03.366Z,91.20
2022-11-22T21:31:30.641Z,84.70
2022-11-22T21:33:57.675Z,86.95
2022-11-22T21:36:25.150Z,81.35
2022-11-22T21:38:52.382Z,86.55
2022-11-22T21:41:39.470Z,91.95
2022-11-22T21:44:08.684Z,88.65
2022-11-22T21:46:35.788Z,82.28
2022-11-22T21:49:02.851Z,91.03
2022-11-22T21:51:29.945Z,88.50
2022-11-22T21:54:00.604Z,87.78
2022-11-22T21:56:28.623Z,83.95
2022-11-22T21:58:55.930Z,84.65
2022-11-22T22:01:25.711Z,85.45
2022-11-22T22:03:53.714Z,86.25
2022-11-22T22:06:21.053Z,88.90
2022-11-22T22:08:48.337Z,90.78
2022-11-22T22:11:15.724Z,91.93
2022-11-22T22:13:45.446Z,85.93
2022-11-22T22:16:19.370Z,97.35
2022-11-22T22:18:47.292Z,97.40
2022-11-22T22:21:14.916Z,95.32
2022-11-22T22:23:43.149Z,89.60
2022-11-22T22:26:14.821Z,106.30
2022-11-22T22:28:42.618Z,114.70
2022-11-22T22:31:13.900Z,167.82
2022-11-22T22:33:41.800Z,133.77
2022-11-22T22:36:21.783Z,115.07
2022-11-22T22:38:49.033Z,105.45
2022-11-22T22:41:17.333Z,105.78
2022-11-22T22:43:47.407Z,101.32
2022-11-22T22:46:21.283Z,95.05
2022-11-22T22:48:49.821Z,85.10
2022-11-22T22:51:31.818Z,88.72
2022-11-22T22:56:30.904Z,96.15
2022-11-22T22:59:00.821Z,94.40
2022-11-22T23:01:31.183Z,93.10
2022-11-22T23:04:01.047Z,90.78
2022-11-22T23:06:37.779Z,91.70
2022-11-22T23:09:10.450Z,88.60
2022-11-22T23:11:56.930Z,91.97
2022-11-22T23:14:30.150Z,86.05
2022-11-22T23:16:59.713Z,93.95
2022-11-22T23:19:29.570Z,90.80
2022-11-22T23:21:59.007Z,87.00
2022-11-22T23:24:28.806Z,88.88
2022-11-22T23:26:58.101Z,93.68
2022-11-22T23:29:25.122Z,94.97
2022-11-22T23:31:54.722Z,100.68
2022-11-22T23:34:21.855Z,98.03
2022-11-22T23:36:51.832Z,93.93
2022-11-22T23:39:18.848Z,92.47
2022-11-22T23:41:46.280Z,95.95
2022-11-22T23:44:13.355Z,98.10
2022-11-22T23:46:40.374Z,100.50
2022-11-22T23:49:07.826Z,100.65
2022-11-22T23:51:36.658Z,99.63
2022-11-22T23:54:07.257Z,99.82
2022-11-22T23:56:35.735Z,103.30
2022-11-22T23:59:05.124Z,103.70
